createdAt,value
2019-02-25T00:01:47.410Z,2.70
2019-02-25T00:04:17.143Z,2.60
2019-02-25T00:06:46.959Z,2.50
2019-02-25T00:09:16.759Z,2.50
2019-02-25T00:11:46.489Z,2.50
2019-02-25T00:14:16.315Z,2.50
2019-02-25T00:16:46.038Z,2.50
2019-02-25T00:19:15.739Z,2.50
2019-02-25T00:21:46.663Z,2.40
2019-02-25T00:24:16.338Z,2.40
2019-02-25T00:26:46.074Z,2.60
2019-02-25T00:29:15.774Z,2.70
2019-02-25T00:31:45.543Z,2.60
2019-02-25T00:34:16.056Z,2.50
2019-02-25T00:36:45.724Z,2.40
2019-02-25T00:39:15.403Z,2.40
2019-02-25T00:41:45.138Z,2.30
2019-02-25T00:44:14.844Z,2.30
2019-02-25T00:46:44.624Z,2.30
2019-02-25T00:49:14.327Z,2.20
2019-02-25T00:51:44.122Z,2.20
2019-02-25T00:54:13.838Z,2.20
2019-02-25T00:56:43.518Z,2.20
2019-02-25T00:59:13.172Z,2.30
2019-02-25T01:01:42.870Z,2.30
2019-02-25T01:04:13.716Z,2.30
2019-02-25T01:06:43.523Z,2.30
2019-02-25T01:09:13.292Z,2.20
2019-02-25T01:11:42.971Z,2.20
2019-02-25T01:14:12.618Z,2.20
2019-02-25T01:16:42.323Z,2.20
2019-02-25T01:19:12.060Z,2.10
2019-02-25T01:21:41.890Z,2.20
2019-02-25T01:24:11.584Z,2.20
2019-02-25T01:26:41.261Z,2.10
2019-02-25T01:29:11.586Z,2.10
2019-02-25T01:31:41.291Z,2.10
2019-02-25T01:34:11.035Z,2.10
2019-02-25T01:36:40.887Z,2.10
2019-02-25T01:39:10.622Z,2.10
2019-02-25T01:41:40.414Z,2.10
2019-02-25T01:44:10.094Z,2.10
2019-02-25T01:46:39.785Z,2.10
2019-02-25T01:49:09.459Z,2.20
2019-02-25T01:51:39.212Z,2.20
2019-02-25T01:54:08.951Z,2.20
2019-02-25T01:56:38.654Z,2.20
2019-02-25T01:59:08.330Z,2.20
2019-02-25T02:01:38.119Z,2.10
2019-02-25T02:04:07.844Z,2.10
2019-02-25T02:06:37.611Z,2.10
2019-02-25T02:09:09.618Z,2.00
2019-02-25T02:11:39.511Z,2.00
2019-02-25T02:14:09.253Z,2.00
2019-02-25T02:16:38.975Z,2.00
2019-02-25T02:19:08.744Z,2.00
2019-02-25T02:21:38.506Z,2.00
2019-02-25T02:24:08.150Z,1.90
2019-02-25T02:26:37.834Z,2.00
2019-02-25T02:29:07.520Z,1.90
2019-02-25T02:31:38.363Z,1.90
2019-02-25T02:34:08.129Z,1.90
2019-02-25T02:36:37.871Z,1.80
2019-02-25T02:39:07.855Z,1.90
2019-02-25T02:42:21.651Z,1.80
2019-02-25T02:44:59.786Z,1.80
2019-02-25T02:47:50.722Z,1.80
2019-02-25T02:50:22.728Z,1.80
2019-02-25T02:52:53.471Z,1.80
2019-02-25T02:55:23.209Z,1.80
2019-02-25T02:57:52.960Z,1.80
2019-02-25T03:00:22.702Z,1.80
2019-02-25T03:02:52.497Z,1.80
2019-02-25T03:05:22.396Z,1.70
2019-02-25T03:07:52.173Z,1.70
2019-02-25T03:10:21.954Z,1.70
2019-02-25T03:12:51.672Z,1.70
2019-02-25T03:15:22.193Z,1.70
2019-02-25T03:17:51.967Z,1.60
2019-02-25T03:20:22.746Z,1.60
2019-02-25T03:22:52.537Z,1.50
2019-02-25T03:25:23.267Z,1.50
2019-02-25T03:27:52.987Z,1.50
2019-02-25T03:30:22.827Z,1.50
2019-02-25T03:32:52.550Z,1.50
2019-02-25T03:35:22.286Z,1.60
2019-02-25T03:37:51.965Z,1.60
2019-02-25T03:40:21.798Z,1.40
2019-02-25T03:42:51.867Z,1.30
2019-02-25T03:45:21.637Z,1.30
2019-02-25T03:48:10.646Z,1.30
2019-02-25T03:50:40.362Z,1.20
2019-02-25T03:53:10.057Z,1.20
2019-02-25T03:55:39.890Z,1.20
2019-02-25T03:58:09.761Z,1.30
2019-02-25T04:00:39.528Z,1.30
2019-02-25T04:03:09.546Z,1.30
2019-02-25T04:05:39.310Z,1.30
2019-02-25T04:08:08.991Z,1.30
2019-02-25T04:10:39.927Z,1.30
2019-02-25T04:13:10.008Z,1.20
2019-02-25T04:15:42.557Z,1.10
2019-02-25T04:18:12.240Z,1.00
2019-02-25T04:20:42.848Z,1.00
2019-02-25T04:23:12.550Z,1.10
2019-02-25T04:25:42.775Z,1.00
2019-02-25T04:28:12.451Z,0.90
2019-02-25T04:30:42.218Z,1.10
2019-02-25T04:33:12.061Z,1.00
2019-02-25T04:35:41.822Z,1.00
2019-02-25T04:38:11.638Z,1.10
2019-02-25T04:40:41.529Z,1.00
2019-02-25T04:43:11.236Z,1.10
2019-02-25T04:45:41.025Z,1.20
2019-02-25T04:48:10.736Z,1.10
2019-02-25T04:50:40.591Z,1.20
2019-02-25T04:53:10.350Z,1.30
2019-02-25T04:55:40.055Z,1.10
2019-02-25T04:58:09.906Z,1.10
2019-02-25T05:00:39.782Z,1.10
2019-02-25T05:03:09.551Z,1.00
2019-02-25T05:05:39.270Z,1.00
2019-02-25T05:08:09.105Z,1.00
2019-02-25T05:10:38.895Z,1.00
2019-02-25T05:13:08.705Z,0.80
2019-02-25T05:15:38.550Z,0.70
2019-02-25T05:18:08.397Z,0.60
2019-02-25T05:20:38.096Z,0.60
2019-02-25T05:23:07.859Z,0.60
2019-02-25T05:25:37.713Z,0.60
2019-02-25T05:28:07.454Z,0.60
2019-02-25T05:30:37.200Z,0.60
2019-02-25T05:33:07.136Z,0.70
2019-02-25T05:35:37.007Z,0.70
2019-02-25T05:38:06.773Z,0.70
2019-02-25T05:40:36.572Z,0.70
2019-02-25T05:43:06.352Z,0.70
2019-02-25T05:45:36.143Z,0.70
2019-02-25T05:48:05.887Z,0.70
2019-02-25T05:50:35.643Z,0.70
2019-02-25T05:53:05.478Z,0.70
2019-02-25T05:55:35.172Z,0.70
2019-02-25T05:58:05.038Z,0.70
2019-02-25T06:00:35.304Z,0.70
2019-02-25T06:03:05.016Z,0.70
2019-02-25T06:05:34.760Z,0.70
2019-02-25T06:08:04.524Z,0.70
2019-02-25T06:10:34.303Z,0.70
2019-02-25T06:13:04.066Z,0.70
2019-02-25T06:15:33.793Z,0.80
2019-02-25T06:18:03.687Z,0.80
2019-02-25T06:20:33.514Z,0.80
2019-02-25T06:23:03.290Z,0.80
2019-02-25T06:25:33.060Z,0.80
2019-02-25T06:28:03.644Z,0.90
2019-02-25T06:30:33.551Z,0.90
2019-02-25T06:33:03.286Z,0.80
2019-02-25T06:35:33.124Z,0.80
2019-02-25T06:38:02.903Z,0.80
2019-02-25T06:40:32.775Z,0.80
2019-02-25T06:43:02.465Z,0.90
2019-02-25T06:45:32.342Z,0.90
2019-02-25T06:48:03.086Z,0.90
2019-02-25T06:50:32.902Z,0.90
2019-02-25T06:53:02.686Z,1.00
2019-02-25T06:55:33.838Z,1.00
2019-02-25T06:58:03.541Z,1.00
2019-02-25T07:00:33.275Z,1.00
2019-02-25T07:03:03.166Z,1.10
2019-02-25T07:06:10.331Z,1.10
2019-02-25T07:08:47.391Z,1.20
2019-02-25T07:11:31.721Z,1.20
2019-02-25T07:14:38.787Z,1.30
2019-02-25T07:17:30.743Z,1.30
2019-02-25T07:20:19.613Z,1.40
2019-02-25T07:23:00.954Z,1.60
2019-02-25T07:25:52.856Z,1.70
2019-02-25T07:28:45.163Z,1.80
2019-02-25T07:31:32.816Z,1.90
2019-02-25T07:34:15.192Z,2.00
2019-02-25T07:37:13.147Z,2.10
2019-02-25T07:40:00.623Z,2.20
2019-02-25T07:42:57.249Z,2.20
2019-02-25T07:45:46.101Z,2.30
2019-02-25T07:48:37.837Z,2.40
2019-02-25T07:51:35.976Z,2.40
2019-02-25T07:54:15.010Z,2.50
2019-02-25T07:57:07.343Z,2.60
2019-02-25T08:00:04.947Z,2.80
2019-02-25T08:02:56.957Z,2.90
2019-02-25T08:05:58.110Z,3.00
2019-02-25T08:08:37.579Z,3.10
2019-02-25T08:11:35.252Z,3.30
2019-02-25T08:14:14.307Z,3.40
2019-02-25T08:17:02.035Z,3.50
2019-02-25T08:19:49.578Z,3.60
2019-02-25T08:22:41.170Z,3.70
2019-02-25T08:25:29.010Z,3.80
2019-02-25T08:28:06.646Z,3.90
2019-02-25T08:30:55.346Z,4.10
2019-02-25T08:33:43.959Z,4.20
2019-02-25T08:37:02.363Z,4.40
2019-02-25T08:39:50.805Z,4.40
2019-02-25T08:42:31.935Z,4.60
2019-02-25T08:45:07.630Z,4.70
2019-02-25T08:47:42.945Z,4.80
2019-02-25T08:50:13.874Z,5.00
2019-02-25T08:52:43.666Z,6.70
2019-02-25T08:55:13.455Z,9.00
2019-02-25T08:57:43.254Z,11.70
2019-02-25T09:00:13.758Z,13.10
2019-02-25T09:02:43.610Z,14.40
2019-02-25T09:05:13.991Z,14.50
2019-02-25T09:07:43.935Z,15.30
2019-02-25T09:10:13.743Z,15.70
2019-02-25T09:12:43.589Z,17.00
2019-02-25T09:15:13.437Z,17.10
2019-02-25T09:17:45.744Z,15.90
2019-02-25T09:20:16.027Z,15.90
2019-02-25T09:22:45.978Z,15.70
2019-02-25T09:25:15.743Z,15.80
2019-02-25T09:27:45.619Z,16.00
2019-02-25T09:30:16.677Z,16.60
2019-02-25T09:32:46.542Z,15.90
2019-02-25T09:35:16.343Z,16.10
2019-02-25T09:37:46.265Z,17.30
2019-02-25T09:40:17.180Z,17.50
2019-02-25T09:42:47.289Z,16.80
2019-02-25T09:45:17.089Z,16.30
2019-02-25T09:47:47.048Z,16.50
2019-02-25T09:50:16.978Z,18.20
2019-02-25T09:52:46.867Z,17.80
2019-02-25T09:55:16.815Z,16.70
2019-02-25T09:57:46.846Z,16.90
2019-02-25T10:00:16.914Z,18.20
2019-02-25T10:02:46.878Z,17.00
2019-02-25T10:05:16.697Z,17.20
2019-02-25T10:07:46.675Z,17.50
2019-02-25T10:10:16.557Z,17.20
2019-02-25T10:12:46.383Z,16.50
2019-02-25T10:15:16.642Z,16.50
2019-02-25T10:17:46.446Z,17.10
2019-02-25T10:20:16.421Z,17.80
2019-02-25T10:22:46.178Z,18.00
2019-02-25T10:25:16.124Z,18.50
2019-02-25T10:27:46.096Z,19.10
2019-02-25T10:30:16.908Z,19.50
2019-02-25T10:32:46.631Z,18.70
2019-02-25T10:35:16.540Z,18.40
2019-02-25T10:37:46.345Z,18.10
2019-02-25T10:40:19.031Z,18.80
2019-02-25T10:42:47.743Z,18.70
2019-02-25T10:45:17.590Z,18.40
2019-02-25T10:47:49.491Z,18.40
2019-02-25T10:50:18.959Z,18.40
2019-02-25T10:52:49.915Z,19.20
2019-02-25T10:55:23.922Z,18.70
2019-02-25T10:57:55.404Z,17.40
2019-02-25T11:00:25.251Z,15.70
2019-02-25T11:02:58.226Z,14.50
2019-02-25T11:05:30.365Z,13.70
2019-02-25T11:08:01.029Z,13.40
2019-02-25T11:10:36.070Z,13.00
2019-02-25T11:13:05.956Z,13.00
2019-02-25T11:15:37.528Z,13.20
2019-02-25T11:18:08.845Z,13.10
2019-02-25T11:20:38.622Z,13.00
2019-02-25T11:23:09.983Z,13.10
2019-02-25T11:25:39.952Z,12.90
2019-02-25T11:28:22.681Z,13.00
2019-02-25T11:30:43.163Z,13.00
2019-02-25T11:33:12.932Z,13.10
2019-02-25T11:35:43.320Z,13.00
2019-02-25T11:38:13.767Z,13.20
2019-02-25T11:40:43.578Z,13.30
2019-02-25T11:43:15.894Z,13.50
2019-02-25T11:45:44.850Z,13.60
2019-02-25T11:48:14.822Z,13.60
2019-02-25T11:50:45.055Z,13.70
2019-02-25T11:53:14.822Z,13.60
2019-02-25T11:55:44.690Z,13.60
2019-02-25T11:58:14.422Z,13.70
2019-02-25T12:00:44.230Z,13.80
2019-02-25T12:03:14.032Z,13.90
2019-02-25T12:05:44.026Z,14.00
2019-02-25T12:08:13.963Z,14.10
2019-02-25T12:10:44.676Z,14.00
2019-02-25T12:13:14.526Z,14.10
2019-02-25T12:15:44.768Z,14.30
2019-02-25T12:18:14.465Z,14.20
2019-02-25T12:20:44.198Z,14.20
2019-02-25T12:23:15.154Z,14.40
2019-02-25T12:25:44.884Z,14.50
2019-02-25T12:28:14.730Z,14.50
2019-02-25T12:30:44.508Z,14.60
2019-02-25T12:33:14.670Z,14.50
2019-02-25T12:35:44.617Z,14.60
2019-02-25T12:38:14.532Z,14.60
2019-02-25T12:40:44.457Z,14.60
2019-02-25T12:43:14.247Z,14.70
2019-02-25T12:45:45.040Z,14.90
2019-02-25T12:48:15.014Z,14.90
2019-02-25T12:50:44.867Z,14.80
2019-02-25T12:53:14.683Z,14.80
2019-02-25T12:55:44.514Z,14.70
2019-02-25T12:58:14.446Z,14.60
2019-02-25T13:00:44.295Z,14.60
2019-02-25T13:03:14.084Z,14.70
2019-02-25T13:05:43.943Z,14.70
2019-02-25T13:08:13.823Z,14.70
2019-02-25T13:10:43.528Z,14.80
2019-02-25T13:13:13.367Z,14.80
2019-02-25T13:15:55.211Z,14.80
2019-02-25T13:18:25.011Z,14.80
2019-02-25T13:20:54.850Z,14.80
2019-02-25T13:23:24.597Z,14.80
2019-02-25T13:25:54.566Z,14.80
2019-02-25T13:28:26.195Z,14.80
2019-02-25T13:30:56.195Z,14.90
2019-02-25T13:33:25.996Z,14.90
2019-02-25T13:35:57.100Z,14.90
2019-02-25T13:38:27.188Z,14.90
2019-02-25T13:40:57.220Z,15.00
2019-02-25T13:43:27.608Z,15.10
2019-02-25T13:45:59.216Z,15.00
2019-02-25T13:48:29.162Z,15.10
2019-02-25T13:50:59.242Z,15.10
2019-02-25T13:53:29.019Z,15.10
2019-02-25T13:55:59.015Z,15.10
2019-02-25T13:58:28.864Z,15.00
2019-02-25T14:00:58.691Z,15.00
2019-02-25T14:03:28.838Z,15.00
2019-02-25T14:05:58.622Z,15.00
2019-02-25T14:08:28.801Z,14.90
2019-02-25T14:10:58.847Z,15.00
2019-02-25T14:13:29.336Z,15.00
2019-02-25T14:16:00.313Z,14.90
2019-02-25T14:18:30.242Z,15.00
2019-02-25T14:21:00.101Z,14.90
2019-02-25T14:23:29.956Z,15.00
2019-02-25T14:25:59.842Z,14.90
2019-02-25T14:28:30.388Z,14.90
2019-02-25T14:31:00.174Z,15.00
2019-02-25T14:33:30.034Z,15.00
2019-02-25T14:36:00.103Z,15.00
2019-02-25T14:38:31.775Z,15.00
2019-02-25T14:41:01.895Z,15.00
2019-02-25T14:43:37.193Z,15.00
2019-02-25T14:46:07.623Z,14.90
2019-02-25T14:48:36.788Z,14.80
2019-02-25T14:51:08.753Z,14.90
2019-02-25T14:53:39.055Z,14.80
2019-02-25T14:56:09.375Z,14.80
2019-02-25T14:58:40.617Z,14.70
2019-02-25T15:01:11.414Z,14.80
2019-02-25T15:03:41.539Z,14.70
2019-02-25T15:06:11.746Z,14.70
2019-02-25T15:08:41.868Z,14.60
2019-02-25T15:11:13.042Z,14.50
2019-02-25T15:13:43.607Z,14.60
2019-02-25T15:16:13.683Z,14.60
2019-02-25T15:18:43.913Z,14.50
2019-02-25T15:21:15.928Z,14.50
2019-02-25T15:23:45.811Z,14.60
2019-02-25T15:26:17.340Z,14.50
2019-02-25T15:28:51.726Z,14.50
2019-02-25T15:31:19.660Z,14.40
2019-02-25T15:33:50.102Z,14.30
2019-02-25T15:36:20.518Z,14.20
2019-02-25T15:38:52.030Z,14.20
2019-02-25T15:41:22.142Z,14.10
2019-02-25T15:43:52.266Z,14.20
2019-02-25T15:46:24.185Z,14.30
2019-02-25T15:48:54.397Z,14.40
2019-02-25T15:51:24.562Z,14.30
2019-02-25T15:53:55.781Z,14.30
2019-02-25T15:56:26.463Z,14.20
2019-02-25T15:58:56.602Z,14.10
2019-02-25T16:01:26.863Z,14.00
2019-02-25T16:04:00.729Z,13.80
2019-02-25T16:06:31.365Z,13.70
2019-02-25T16:09:03.110Z,13.60
2019-02-25T16:11:34.913Z,13.50
2019-02-25T16:14:07.009Z,13.40
2019-02-25T16:16:37.427Z,13.40
2019-02-25T16:19:07.676Z,13.50
2019-02-25T16:21:40.787Z,13.50
2019-02-25T16:24:12.346Z,13.60
2019-02-25T16:26:42.895Z,13.60
2019-02-25T16:29:13.486Z,13.50
2019-02-25T16:31:43.646Z,13.30
2019-02-25T16:34:14.728Z,13.10
2019-02-25T16:36:49.669Z,13.10
2019-02-25T16:39:17.613Z,12.90
2019-02-25T16:41:47.943Z,12.80
2019-02-25T16:44:18.285Z,12.70
2019-02-25T16:46:50.611Z,12.60
2019-02-25T16:49:20.428Z,12.70
2019-02-25T16:51:51.462Z,12.70
2019-02-25T16:54:22.898Z,12.80
2019-02-25T16:57:14.245Z,12.60
2019-02-25T16:59:44.818Z,12.40
2019-02-25T17:02:15.101Z,12.20
2019-02-25T17:04:45.263Z,12.10
2019-02-25T17:07:16.146Z,12.00
2019-02-25T17:09:47.382Z,11.90
2019-02-25T17:12:17.755Z,11.90
2019-02-25T17:14:48.088Z,11.80
2019-02-25T17:17:18.152Z,11.70
2019-02-25T17:19:48.332Z,11.50
2019-02-25T17:22:18.752Z,11.20
2019-02-25T17:24:48.870Z,11.10
2019-02-25T17:27:19.348Z,10.90
2019-02-25T17:29:51.155Z,10.70
2019-02-25T17:32:22.868Z,10.70
2019-02-25T17:34:56.076Z,10.70
2019-02-25T17:37:26.744Z,10.60
2019-02-25T17:39:59.126Z,10.50
2019-02-25T17:42:31.271Z,10.40
2019-02-25T17:45:02.562Z,10.30
2019-02-25T17:47:33.218Z,10.20
2019-02-25T17:50:06.426Z,10.20
2019-02-25T17:52:38.745Z,10.20
2019-02-25T17:55:12.650Z,10.20
2019-02-25T17:57:42.981Z,10.10
2019-02-25T18:00:35.047Z,10.00
2019-02-25T18:03:04.746Z,9.90
2019-02-25T18:05:35.878Z,9.80
2019-02-25T18:08:08.117Z,9.70
2019-02-25T18:10:38.655Z,9.60
2019-02-25T18:13:10.947Z,9.50
2019-02-25T18:15:40.555Z,9.50
2019-02-25T18:18:14.080Z,9.50
2019-02-25T18:20:42.433Z,9.40
2019-02-25T18:23:12.954Z,9.50
2019-02-25T18:25:43.151Z,9.40
2019-02-25T18:28:15.128Z,9.30
2019-02-25T18:30:45.471Z,9.20
2019-02-25T18:33:17.391Z,9.10
2019-02-25T18:35:47.939Z,9.00
2019-02-25T18:38:18.154Z,8.90
2019-02-25T18:40:48.522Z,9.00
2019-02-25T18:43:20.005Z,9.00
2019-02-25T18:45:50.767Z,8.90
2019-02-25T18:48:21.512Z,8.90
2019-02-25T18:50:55.998Z,8.80
2019-02-25T18:53:25.049Z,8.80
2019-02-25T18:55:56.788Z,8.70
2019-02-25T18:58:28.071Z,8.60
2019-02-25T19:00:58.503Z,8.40
2019-02-25T19:03:29.029Z,8.40
2019-02-25T19:06:00.390Z,8.30
2019-02-25T19:08:31.795Z,8.30
2019-02-25T19:11:02.171Z,8.20
2019-02-25T19:13:32.422Z,8.30
2019-02-25T19:16:02.663Z,8.50
2019-02-25T19:18:34.690Z,8.50
2019-02-25T19:21:06.425Z,8.40
2019-02-25T19:23:37.701Z,8.40
2019-02-25T19:26:10.455Z,8.40
2019-02-25T19:28:44.051Z,8.30
2019-02-25T19:31:12.531Z,8.20
2019-02-25T19:33:42.674Z,8.10
2019-02-25T19:36:12.813Z,8.20
2019-02-25T19:38:44.127Z,8.30
2019-02-25T19:41:15.334Z,8.30
2019-02-25T19:43:46.630Z,8.20
2019-02-25T19:46:16.809Z,8.20
2019-02-25T19:48:47.985Z,8.10
2019-02-25T19:51:20.631Z,8.10
2019-02-25T19:53:51.763Z,8.00
2019-02-25T19:56:23.119Z,7.90
2019-02-25T19:58:53.283Z,7.70
2019-02-25T20:01:24.458Z,7.70
2019-02-25T20:03:54.599Z,7.70
2019-02-25T20:06:26.279Z,7.70
2019-02-25T20:08:58.193Z,7.70
2019-02-25T20:11:28.425Z,7.70
2019-02-25T20:14:01.527Z,7.60
2019-02-25T20:16:32.352Z,7.50
2019-02-25T20:19:04.574Z,7.50
2019-02-25T20:21:34.540Z,7.40
2019-02-25T20:24:04.931Z,7.40
2019-02-25T20:26:35.008Z,7.30
2019-02-25T20:29:06.285Z,7.20
2019-02-25T20:31:36.919Z,7.20
2019-02-25T20:34:07.074Z,7.20
2019-02-25T20:36:37.364Z,7.10
2019-02-25T20:39:08.909Z,7.10
2019-02-25T20:41:39.458Z,7.00
2019-02-25T20:44:09.579Z,7.00
2019-02-25T20:46:39.693Z,7.00
2019-02-25T20:49:09.801Z,6.90
2019-02-25T20:51:39.958Z,6.90
2019-02-25T20:54:11.718Z,6.90
2019-02-25T20:56:41.962Z,7.00
2019-02-25T20:59:12.375Z,7.10
2019-02-25T21:01:44.648Z,7.10
2019-02-25T21:04:15.697Z,7.10
2019-02-25T21:06:46.995Z,7.10
2019-02-25T21:09:17.112Z,7.10
2019-02-25T21:11:47.370Z,7.00
2019-02-25T21:14:17.511Z,6.90
2019-02-25T21:16:47.692Z,6.80
2019-02-25T21:19:20.003Z,6.70
2019-02-25T21:21:52.935Z,6.70
2019-02-25T21:24:22.090Z,6.70
2019-02-25T21:26:55.210Z,6.60
2019-02-25T21:29:26.902Z,6.50
2019-02-25T21:31:56.982Z,6.40
2019-02-25T21:34:29.142Z,6.30
2019-02-25T21:37:00.732Z,6.30
2019-02-25T21:39:31.971Z,6.20
2019-02-25T21:42:02.809Z,6.20
2019-02-25T21:44:32.838Z,6.20
2019-02-25T21:47:03.645Z,6.10
2019-02-25T21:49:36.490Z,6.20
2019-02-25T21:52:08.309Z,6.10
2019-02-25T21:54:38.342Z,6.10
2019-02-25T21:57:09.738Z,6.00
2019-02-25T21:59:41.059Z,6.00
2019-02-25T22:02:11.432Z,6.00
2019-02-25T22:04:43.068Z,5.90
2019-02-25T22:07:17.089Z,5.80
2019-02-25T22:09:46.518Z,5.80
2019-02-25T22:12:16.598Z,5.80
2019-02-25T22:14:47.792Z,5.80
2019-02-25T22:17:20.641Z,5.70
2019-02-25T22:19:50.487Z,5.70
2019-02-25T22:22:24.130Z,5.60
2019-02-25T22:24:52.361Z,5.60
2019-02-25T22:27:23.026Z,5.60
2019-02-25T22:29:53.131Z,5.50
2019-02-25T22:32:23.295Z,5.50
2019-02-25T22:34:53.322Z,5.50
2019-02-25T22:37:25.022Z,5.50
2019-02-25T22:39:56.139Z,5.50
2019-02-25T22:42:26.976Z,5.50
2019-02-25T22:44:57.999Z,5.50
2019-02-25T22:47:28.028Z,5.50
2019-02-25T22:49:58.027Z,5.50
2019-02-25T22:52:29.246Z,5.50
2019-02-25T22:54:59.851Z,5.40
2019-02-25T22:57:29.991Z,5.40
2019-02-25T22:59:59.988Z,5.30
2019-02-25T23:02:30.279Z,5.30
2019-02-25T23:05:00.295Z,5.20
2019-02-25T23:07:30.399Z,5.20
2019-02-25T23:10:00.535Z,5.20
2019-02-25T23:12:31.115Z,5.10
2019-02-25T23:15:05.539Z,5.10
2019-02-25T23:17:35.716Z,5.10
2019-02-25T23:20:09.370Z,5.00
2019-02-25T23:22:40.767Z,5.00
2019-02-25T23:25:10.772Z,5.00
2019-02-25T23:27:40.798Z,5.00
2019-02-25T23:30:11.024Z,5.00
2019-02-25T23:32:41.075Z,5.00
2019-02-25T23:35:13.656Z,5.00
2019-02-25T23:37:45.091Z,5.00
2019-02-25T23:40:16.649Z,4.90
2019-02-25T23:42:48.581Z,4.90
2019-02-25T23:45:20.457Z,4.90
2019-02-25T23:47:50.035Z,4.90
2019-02-25T23:50:20.131Z,4.90
2019-02-25T23:52:50.238Z,5.00
2019-02-25T23:55:23.845Z,5.00
2019-02-25T23:57:52.165Z,4.90
